CYFBCYLT

Guest
Details From CYFB - Iqaluit
To CYLT - Alert
Flight Number -
Tags Generated
Created
Modified
Stats Distance 1,132 nm / 2,096 km
Max Altitude 0 ft / 0 m
Waypoints 3
Social Downloads 2
Likes 0
Share VATSIM

Download

Looking for another format? Having issues loading an existing format? Contact us
Advertisement - Login to hide

Notes

Generated

Route

CYFB LT CYLT

ID Type Via Altitude Latitude Longitude Leg Dist Tot Dist Heading (true) Name
O CYFB APT - 0 ft / 0 m 63.76497˚ -68.57398˚ - 0 nm - -
LT NDB - 0 ft / 0 m 82.52583˚ -62.21139˚ 1130 nm 1130 nm 3° / 9° ALERT NDB
O CYLT APT - 0 ft / 0 m 82.51278˚ -62.32333˚ 1 nm 1131 nm 228° / 228° -

Altitude Profile

Advertisement - Login to hide

Weather


0- 5 10 15 20 25 30 35+ Temperature / ° C

Clouds and Precipitation
Forecast for 2017-12-12 00:00 UTC. Updated 3 minutes ago

Ground ~20,000 ft ~40,000 ft Winds

CYFB

Details ICAO CYFB (YFB)
Name Iqaluit
Region Canada
Timezone America/Iqaluit (UTC-5.0)
Stats Elevation 110 ft / 34 m (AMSL)
Location 63.756565° -68.556058°
Runways 1
Magnetic Variation 27.546° W

METAR

CYFB 112100Z 34005KT 10SM -SN OVC024 M16/M19 A2941 RMK SC8 SLP967

Decode

TAF

TAF CYFB 111738Z 1118/1218 32012KT P6SM FEW015 SCT030 TEMPO 1118/1206 4SM -SN OVC015 FM120600 32006KT P6SM BKN025 RMK NXT FCST BY 120000Z

Decode

Departure Runways

ID Width Length Bearing (true) Bearing (mag) Surface Threshold Offset Overrun Length
17 200 ft / 61 m 8,605 ft / 2,623 m 135.58° 163.13° Asphalt 0 ft / 0 m 210 ft / 64 m
35 200 ft / 61 m 8,605 ft / 2,623 m 315.62° 343.17° Asphalt 0 ft / 0 m 243 ft / 74 m

CYLT

Details ICAO CYLT (YLT)
Name ALERT
Region Canada
Timezone Unknown (UTC+0.0)
Stats Elevation 100 ft / 30 m (AMSL)
Location 82.517778° -62.280555°
Runways 1
Magnetic Variation 49.678° W

METAR

CYLT 112000Z 32004KT 6SM -SN SCT025 OVC035 M17/M20 A2950 RMK SC3SC5 LAST OBS/NEXT 120600 UTC SLP996

Decode

TAF

TAF AMD TAF AMD CYLT 112029Z 1118/1206 FCST CNCLD DUE END OF FLYING PROGRAM RMK NXT FCST WILL BE ISSUED AT 120715Z

Decode

Destination Runways

ID Width Length Bearing (true) Bearing (mag) Surface Threshold Offset Overrun Length
05T 150 ft / 46 m 5,463 ft / 1,665 m 48.05° 97.73° Gravel 0 ft / 0 m 0 ft / 0 m
23T 150 ft / 46 m 5,463 ft / 1,665 m 228.13° 277.81° Gravel 0 ft / 0 m 0 ft / 0 m

Popular Alternatives